createdAt,value
2018-12-30T00:00:51.338Z,1.67
2018-12-30T00:03:21.684Z,1.78
2018-12-30T00:05:52.113Z,1.86
2018-12-30T00:08:23.593Z,1.97
2018-12-30T00:10:54.070Z,2.04
2018-12-30T00:13:24.599Z,2.16
2018-12-30T00:15:54.785Z,2.28
2018-12-30T00:18:25.198Z,2.36
2018-12-30T00:20:55.297Z,2.38
2018-12-30T00:23:25.894Z,2.29
2018-12-30T00:25:56.028Z,2.27
2018-12-30T00:28:26.181Z,2.16
2018-12-30T00:30:56.394Z,2.22
2018-12-30T00:33:26.668Z,2.29
2018-12-30T00:35:56.757Z,2.35
2018-12-30T00:38:27.229Z,2.37
2018-12-30T00:40:57.336Z,2.38
2018-12-30T00:43:27.765Z,2.40
2018-12-30T00:45:57.870Z,2.49
2018-12-30T00:48:28.269Z,2.53
2018-12-30T00:50:58.360Z,2.46
2018-12-30T00:53:28.767Z,2.44
2018-12-30T00:55:58.876Z,2.39
2018-12-30T00:58:29.003Z,2.42
2018-12-30T01:00:59.103Z,2.43
2018-12-30T01:03:29.297Z,2.43
2018-12-30T01:05:59.405Z,2.43
2018-12-30T01:08:29.532Z,2.43
2018-12-30T01:10:59.626Z,2.41
2018-12-30T01:13:29.758Z,2.39
2018-12-30T01:15:59.867Z,2.40
2018-12-30T01:18:29.993Z,2.38
2018-12-30T01:21:00.115Z,2.37
2018-12-30T01:23:30.274Z,2.35
2018-12-30T01:26:00.401Z,2.34
2018-12-30T01:28:30.796Z,2.33
2018-12-30T01:31:00.898Z,2.28
2018-12-30T01:33:31.377Z,2.19
2018-12-30T01:36:01.479Z,2.16
2018-12-30T01:38:31.925Z,2.13
2018-12-30T01:41:02.034Z,2.11
2018-12-30T01:43:32.476Z,2.08
2018-12-30T01:46:02.671Z,2.06
2018-12-30T01:48:33.328Z,2.09
2018-12-30T01:51:03.441Z,2.07
2018-12-30T01:53:33.550Z,2.07
2018-12-30T01:56:03.664Z,2.09
2018-12-30T01:58:33.813Z,2.15
2018-12-30T02:01:04.309Z,2.18
2018-12-30T02:03:34.433Z,2.21
2018-12-30T02:06:04.552Z,2.23
2018-12-30T02:08:34.997Z,2.26
2018-12-30T02:11:05.169Z,2.23
2018-12-30T02:13:35.288Z,2.24
2018-12-30T02:16:05.413Z,2.24
2018-12-30T02:18:35.992Z,2.24
2018-12-30T02:21:06.096Z,1.76
2018-12-30T02:23:36.271Z,2.24
2018-12-30T02:26:06.474Z,2.24
2018-12-30T02:28:36.969Z,2.24
2018-12-30T02:31:07.082Z,2.23
2018-12-30T02:33:37.326Z,2.21
2018-12-30T02:36:07.724Z,2.22
2018-12-30T02:38:38.012Z,2.24
2018-12-30T02:41:08.112Z,2.18
2018-12-30T02:43:38.605Z,2.22
2018-12-30T02:46:08.714Z,2.20
2018-12-30T02:48:39.116Z,2.20
2018-12-30T02:51:10.298Z,2.23
2018-12-30T02:53:40.721Z,2.21
2018-12-30T02:56:10.838Z,2.20
2018-12-30T02:58:41.421Z,2.14
2018-12-30T03:01:11.518Z,2.03
2018-12-30T03:03:42.011Z,1.97
2018-12-30T03:06:12.114Z,2.04
2018-12-30T03:08:42.608Z,2.11
2018-12-30T03:11:12.724Z,2.15
2018-12-30T03:13:42.849Z,2.17
2018-12-30T03:16:12.973Z,2.19
2018-12-30T03:18:43.454Z,2.20
2018-12-30T03:21:13.825Z,2.17
2018-12-30T03:23:44.310Z,2.17
2018-12-30T03:26:14.411Z,2.17
2018-12-30T03:28:44.848Z,2.18
2018-12-30T03:31:15.231Z,2.20
2018-12-30T03:33:45.704Z,2.15
2018-12-30T03:36:15.837Z,1.96
2018-12-30T03:38:46.354Z,1.96
2018-12-30T03:41:16.479Z,1.85
2018-12-30T03:43:46.646Z,1.90
2018-12-30T03:46:16.784Z,1.95
2018-12-30T03:48:47.242Z,2.09
2018-12-30T03:51:17.383Z,2.15
2018-12-30T03:53:47.567Z,2.17
2018-12-30T03:56:18.610Z,2.18
2018-12-30T03:58:49.381Z,2.17
2018-12-30T04:01:19.552Z,2.12
2018-12-30T04:03:50.006Z,2.05
2018-12-30T04:06:20.205Z,1.97
2018-12-30T04:08:50.393Z,1.99
2018-12-30T04:11:20.486Z,1.98
2018-12-30T04:13:50.909Z,2.00
2018-12-30T04:16:21.031Z,2.06
2018-12-30T04:18:51.187Z,2.07
2018-12-30T04:21:21.294Z,2.03
2018-12-30T04:23:51.745Z,1.97
2018-12-30T04:26:21.869Z,1.95
2018-12-30T04:28:51.985Z,1.93
2018-12-30T04:31:22.089Z,1.96
2018-12-30T04:33:52.596Z,1.97
2018-12-30T04:36:22.657Z,2.00
2018-12-30T04:38:53.053Z,2.02
2018-12-30T04:41:23.172Z,2.02
2018-12-30T04:43:53.609Z,2.00
2018-12-30T04:46:23.724Z,2.02
2018-12-30T04:48:53.877Z,2.05
2018-12-30T04:51:24.139Z,2.10
2018-12-30T04:53:54.272Z,2.12
2018-12-30T04:56:24.381Z,2.15
2018-12-30T04:58:55.120Z,2.17
2018-12-30T05:01:25.237Z,2.22
2018-12-30T05:03:55.730Z,2.24
2018-12-30T05:06:25.837Z,2.26
2018-12-30T05:08:55.979Z,2.27
2018-12-30T05:11:26.081Z,2.26
2018-12-30T05:13:56.265Z,2.24
2018-12-30T05:16:26.385Z,2.24
2018-12-30T05:18:56.854Z,2.18
2018-12-30T05:21:26.973Z,2.16
2018-12-30T05:23:57.499Z,2.18
2018-12-30T05:26:27.626Z,2.20
2018-12-30T05:28:57.753Z,2.16
2018-12-30T05:31:27.882Z,2.09
2018-12-30T05:33:58.319Z,2.11
2018-12-30T05:36:28.422Z,2.16
2018-12-30T05:38:58.897Z,2.08
2018-12-30T05:41:29.025Z,2.17
2018-12-30T05:43:59.164Z,2.21
2018-12-30T05:46:29.387Z,2.23
2018-12-30T05:48:59.983Z,2.24
2018-12-30T05:51:30.144Z,2.23
2018-12-30T05:54:00.291Z,2.27
2018-12-30T05:56:31.977Z,2.26
2018-12-30T05:59:02.322Z,2.29
2018-12-30T06:01:33.332Z,2.24
2018-12-30T06:04:04.500Z,2.27
2018-12-30T06:06:34.602Z,2.32
2018-12-30T06:09:07.067Z,2.26
2018-12-30T06:11:37.208Z,2.35
2018-12-30T06:14:07.668Z,2.26
2018-12-30T06:16:37.798Z,2.38
2018-12-30T06:19:09.343Z,2.37
2018-12-30T06:21:39.444Z,2.26
2018-12-30T06:24:09.634Z,2.31
2018-12-30T06:26:39.753Z,2.27
2018-12-30T06:29:10.226Z,2.26
2018-12-30T06:31:40.342Z,2.14
2018-12-30T06:34:10.818Z,2.17
2018-12-30T06:36:41.056Z,1.94
2018-12-30T06:39:11.168Z,2.05
2018-12-30T06:41:41.285Z,2.18
2018-12-30T06:44:11.760Z,2.25
2018-12-30T06:46:41.869Z,2.33
2018-12-30T06:49:12.058Z,2.24
2018-12-30T06:51:42.997Z,2.03
2018-12-30T06:54:13.474Z,2.11
2018-12-30T06:56:45.176Z,2.15
2018-12-30T06:59:15.346Z,2.14
2018-12-30T07:01:45.455Z,2.04
2018-12-30T07:04:17.125Z,2.05
2018-12-30T07:06:47.239Z,2.11
2018-12-30T07:09:17.762Z,2.16
2018-12-30T07:11:48.009Z,2.17
2018-12-30T07:14:18.616Z,2.08
2018-12-30T07:16:48.726Z,2.14
2018-12-30T07:19:19.806Z,2.13
2018-12-30T07:21:49.909Z,2.16
2018-12-30T07:24:21.293Z,2.20
2018-12-30T07:26:51.404Z,2.23
2018-12-30T07:29:21.889Z,2.21
2018-12-30T07:31:52.763Z,2.22
2018-12-30T07:34:23.259Z,2.24
2018-12-30T07:36:53.382Z,1.80
2018-12-30T07:39:23.811Z,2.03
2018-12-30T07:41:54.334Z,1.95
2018-12-30T07:44:26.528Z,1.92
2018-12-30T07:47:00.746Z,1.99
2018-12-30T07:49:30.877Z,2.02
2018-12-30T07:52:00.972Z,2.01
2018-12-30T07:54:31.483Z,1.94
2018-12-30T07:57:01.581Z,2.01
2018-12-30T07:59:31.973Z,2.06
2018-12-30T08:02:02.082Z,2.12
2018-12-30T08:04:32.533Z,2.14
2018-12-30T08:07:02.655Z,2.20
2018-12-30T08:09:33.115Z,2.10
2018-12-30T08:12:03.234Z,2.14
2018-12-30T08:14:33.545Z,2.10
2018-12-30T08:17:03.654Z,2.20
2018-12-30T08:19:33.782Z,2.17
2018-12-30T08:22:03.895Z,2.09
2018-12-30T08:24:34.227Z,2.25
2018-12-30T08:27:04.361Z,2.29
2018-12-30T08:29:34.530Z,2.26
2018-12-30T08:32:11.136Z,2.08
2018-12-30T08:34:46.621Z,2.20
2018-12-30T08:37:16.720Z,2.31
2018-12-30T08:39:46.851Z,2.38
2018-12-30T08:42:18.136Z,2.45
2018-12-30T08:44:48.286Z,2.51
2018-12-30T08:47:18.390Z,2.64
2018-12-30T08:49:48.513Z,2.65
2018-12-30T08:52:18.889Z,2.62
2018-12-30T08:54:49.097Z,2.71
2018-12-30T08:57:19.203Z,2.63
2018-12-30T08:59:49.323Z,2.45
2018-12-30T09:02:19.418Z,2.41
2018-12-30T09:04:49.637Z,2.57
2018-12-30T09:07:19.733Z,2.61
2018-12-30T09:09:49.965Z,2.70
2018-12-30T09:12:21.241Z,2.73
2018-12-30T09:14:51.380Z,2.77
2018-12-30T09:17:21.475Z,2.85
2018-12-30T09:19:51.656Z,2.73
2018-12-30T09:22:21.714Z,2.66
2018-12-30T09:24:53.080Z,2.68
2018-12-30T09:27:23.184Z,2.70
2018-12-30T09:29:54.285Z,2.78
2018-12-30T09:32:24.433Z,2.82
2018-12-30T09:34:54.857Z,2.65
2018-12-30T09:37:24.980Z,2.72
2018-12-30T09:39:55.121Z,2.66
2018-12-30T09:42:25.220Z,2.57
2018-12-30T09:44:55.951Z,2.63
2018-12-30T09:47:26.155Z,2.70
2018-12-30T09:49:56.305Z,2.70
2018-12-30T09:52:27.792Z,2.82
2018-12-30T09:54:58.579Z,2.76
2018-12-30T09:57:28.837Z,2.80
2018-12-30T09:59:58.966Z,2.92
2018-12-30T10:02:29.077Z,2.94
2018-12-30T10:04:59.589Z,2.93
2018-12-30T10:07:29.757Z,3.06
2018-12-30T10:09:59.881Z,3.15
2018-12-30T10:12:29.982Z,3.20
2018-12-30T10:15:09.036Z,3.26
2018-12-30T10:17:32.187Z,3.07
2018-12-30T10:20:02.352Z,3.16
2018-12-30T10:22:32.449Z,3.26
2018-12-30T10:25:03.002Z,3.34
2018-12-30T10:27:34.005Z,3.43
2018-12-30T10:30:04.654Z,3.51
2018-12-30T10:32:34.868Z,3.55
2018-12-30T10:35:05.435Z,3.53
2018-12-30T10:37:35.516Z,3.61
2018-12-30T10:40:06.094Z,3.65
2018-12-30T10:42:36.261Z,3.70
2018-12-30T10:45:07.264Z,3.75
2018-12-30T10:47:37.411Z,3.77
2018-12-30T10:50:07.633Z,3.79
2018-12-30T10:52:37.736Z,3.82
2018-12-30T10:55:08.009Z,3.75
2018-12-30T10:57:38.153Z,3.60
2018-12-30T11:00:08.854Z,3.50
2018-12-30T11:02:41.309Z,3.54
2018-12-30T11:05:11.994Z,3.57
2018-12-30T11:07:42.068Z,3.59
2018-12-30T11:10:12.195Z,3.69
2018-12-30T11:12:42.301Z,3.79
2018-12-30T11:15:12.759Z,3.85
2018-12-30T11:17:42.857Z,4.00
2018-12-30T11:20:13.015Z,4.09
2018-12-30T11:22:43.166Z,4.17
2018-12-30T11:25:13.371Z,4.15
2018-12-30T11:27:43.501Z,4.22
2018-12-30T11:30:13.647Z,4.14
2018-12-30T11:32:44.144Z,4.14
2018-12-30T11:35:14.296Z,4.11
2018-12-30T11:37:44.414Z,4.16
2018-12-30T11:40:14.540Z,4.07
2018-12-30T11:42:44.644Z,4.08
2018-12-30T11:45:14.786Z,4.01
2018-12-30T11:47:44.900Z,4.10
2018-12-30T11:50:16.103Z,3.95
2018-12-30T11:52:46.256Z,3.82
2018-12-30T11:55:16.424Z,3.71
2018-12-30T11:57:46.573Z,3.66
2018-12-30T12:00:17.153Z,3.63
2018-12-30T12:02:47.262Z,3.50
2018-12-30T12:05:17.393Z,3.43
2018-12-30T12:07:47.498Z,3.31
2018-12-30T12:10:17.637Z,3.28
2018-12-30T12:12:48.984Z,3.24
2018-12-30T12:15:19.592Z,3.28
2018-12-30T12:17:49.701Z,3.26
2018-12-30T12:20:19.845Z,3.26
2018-12-30T12:22:49.956Z,3.20
2018-12-30T12:25:20.134Z,3.13
2018-12-30T12:27:50.235Z,3.11
2018-12-30T12:30:20.389Z,3.18
2018-12-30T12:32:52.335Z,3.18
2018-12-30T12:35:22.460Z,3.13
2018-12-30T12:37:52.574Z,3.17
2018-12-30T12:40:22.723Z,3.20
2018-12-30T12:42:52.824Z,3.20
2018-12-30T12:45:23.044Z,3.18
2018-12-30T12:47:53.157Z,3.28
2018-12-30T12:50:25.153Z,3.34
2018-12-30T12:52:55.718Z,3.42
2018-12-30T12:55:25.870Z,3.38
2018-12-30T12:57:56.054Z,3.29
2018-12-30T13:00:26.193Z,3.33
2018-12-30T13:02:56.319Z,3.23
2018-12-30T13:05:26.897Z,3.33
2018-12-30T13:07:56.995Z,3.41
2018-12-30T13:10:27.459Z,3.43
2018-12-30T13:12:57.563Z,3.45
2018-12-30T13:15:27.811Z,3.53
2018-12-30T13:17:57.924Z,3.38
2018-12-30T13:20:28.077Z,3.50
2018-12-30T13:22:58.197Z,3.51
2018-12-30T13:25:28.393Z,3.48
2018-12-30T13:27:58.497Z,3.42
2018-12-30T13:30:28.710Z,3.43
2018-12-30T13:32:58.833Z,3.43
2018-12-30T13:35:29.263Z,3.41
2018-12-30T13:37:59.375Z,3.45
2018-12-30T13:40:29.809Z,3.43
2018-12-30T13:42:59.942Z,3.37
2018-12-30T13:45:32.162Z,3.34
2018-12-30T13:48:02.145Z,3.37
2018-12-30T13:50:32.271Z,3.30
2018-12-30T13:53:02.364Z,3.30
2018-12-30T13:55:32.488Z,3.34
2018-12-30T13:58:02.643Z,3.33
2018-12-30T14:00:32.771Z,3.33
2018-12-30T14:03:02.900Z,3.22
2018-12-30T14:05:33.077Z,3.22
2018-12-30T14:08:03.173Z,3.00
2018-12-30T14:10:33.298Z,2.98
2018-12-30T14:13:03.400Z,2.91
2018-12-30T14:15:33.531Z,2.88
2018-12-30T14:18:03.638Z,2.81
2018-12-30T14:20:33.778Z,2.79
2018-12-30T14:23:03.896Z,2.71
2018-12-30T14:25:34.418Z,2.66
2018-12-30T14:28:04.601Z,2.62
2018-12-30T14:30:34.733Z,2.64
2018-12-30T14:33:04.830Z,2.65
2018-12-30T14:35:35.065Z,2.62
2018-12-30T14:38:05.273Z,2.60
2018-12-30T14:40:35.421Z,2.60
2018-12-30T14:43:05.527Z,2.53
2018-12-30T14:45:35.654Z,2.49
2018-12-30T14:48:05.765Z,2.39
2018-12-30T14:50:35.898Z,2.26
2018-12-30T14:53:06.028Z,2.22
2018-12-30T14:55:36.153Z,2.28
2018-12-30T14:58:06.260Z,2.26
2018-12-30T15:00:36.382Z,2.18
2018-12-30T15:03:06.485Z,2.23
2018-12-30T15:05:36.701Z,2.26
2018-12-30T15:08:06.801Z,2.24
2018-12-30T15:10:36.939Z,2.20
2018-12-30T15:13:07.041Z,2.20
2018-12-30T15:15:37.166Z,2.10
2018-12-30T15:18:07.278Z,2.06
2018-12-30T15:20:37.402Z,2.04
2018-12-30T15:23:07.522Z,2.08
2018-12-30T15:25:37.713Z,2.11
2018-12-30T15:28:07.911Z,2.05
2018-12-30T15:30:38.038Z,1.97
2018-12-30T15:33:08.137Z,1.91
2018-12-30T15:35:38.797Z,1.88
2018-12-30T15:38:08.904Z,1.78
2018-12-30T15:40:39.135Z,1.75
2018-12-30T15:43:09.245Z,1.67
2018-12-30T15:45:39.561Z,1.68
2018-12-30T15:48:10.436Z,1.62
2018-12-30T15:50:40.646Z,1.60
2018-12-30T15:53:10.754Z,1.63
2018-12-30T15:55:40.985Z,1.66
2018-12-30T15:58:11.168Z,1.62
2018-12-30T16:00:41.465Z,1.64
2018-12-30T16:03:11.629Z,1.64
2018-12-30T16:05:42.156Z,1.64
2018-12-30T16:08:12.262Z,1.64
2018-12-30T16:10:42.401Z,1.60
2018-12-30T16:13:12.655Z,1.59
2018-12-30T16:15:42.778Z,1.65
2018-12-30T16:18:12.886Z,1.67
2018-12-30T16:20:43.018Z,1.66
2018-12-30T16:23:13.150Z,1.69
2018-12-30T16:25:43.368Z,1.73
2018-12-30T16:28:13.489Z,1.73
2018-12-30T16:30:43.714Z,1.76
2018-12-30T16:33:13.760Z,1.77
2018-12-30T16:35:43.988Z,1.80
2018-12-30T16:38:14.176Z,1.81
2018-12-30T16:40:44.533Z,1.86
2018-12-30T16:43:14.665Z,1.87
2018-12-30T16:45:44.981Z,1.84
2018-12-30T16:48:15.133Z,1.82
2018-12-30T16:50:45.617Z,1.74
2018-12-30T16:53:15.892Z,1.68
2018-12-30T16:55:47.357Z,1.65
2018-12-30T16:58:17.461Z,1.58
2018-12-30T17:00:47.590Z,1.56
2018-12-30T17:03:17.691Z,1.48
2018-12-30T17:05:49.147Z,1.39
2018-12-30T17:08:19.253Z,1.34
2018-12-30T17:10:49.394Z,1.27
2018-12-30T17:13:19.486Z,1.16
2018-12-30T17:15:49.611Z,1.11
2018-12-30T17:18:19.718Z,1.10
2018-12-30T17:20:49.833Z,1.02
2018-12-30T17:23:19.937Z,0.95
2018-12-30T17:25:50.380Z,1.00
2018-12-30T17:28:20.551Z,0.87
2018-12-30T17:30:50.679Z,0.82
2018-12-30T17:33:20.811Z,0.84
2018-12-30T17:35:50.942Z,0.84
2018-12-30T17:38:21.053Z,0.82
2018-12-30T17:40:51.281Z,0.79
2018-12-30T17:43:21.839Z,0.74
2018-12-30T17:45:51.961Z,0.73
2018-12-30T17:48:22.064Z,0.71
2018-12-30T17:50:52.235Z,0.69
2018-12-30T17:53:22.368Z,0.73
2018-12-30T17:55:52.501Z,0.66
2018-12-30T17:58:23.124Z,0.65
2018-12-30T18:00:53.677Z,0.62
2018-12-30T18:03:23.816Z,0.58
2018-12-30T18:05:54.059Z,0.54
2018-12-30T18:08:24.195Z,0.56
2018-12-30T18:10:54.341Z,0.58
2018-12-30T18:13:24.586Z,0.56
2018-12-30T18:15:54.714Z,0.56
2018-12-30T18:18:24.840Z,0.60
2018-12-30T18:20:54.977Z,0.58
2018-12-30T18:23:25.145Z,0.51
2018-12-30T18:25:58.759Z,0.45
2018-12-30T18:28:28.047Z,0.48
2018-12-30T18:30:58.170Z,0.52
2018-12-30T18:33:28.275Z,0.43
2018-12-30T18:35:58.403Z,0.43
2018-12-30T18:38:28.501Z,0.43
2018-12-30T18:40:58.729Z,0.43
2018-12-30T18:43:28.945Z,0.46
2018-12-30T18:45:59.368Z,0.42
2018-12-30T18:48:29.478Z,0.37
2018-12-30T18:50:59.630Z,0.40
2018-12-30T18:53:30.037Z,0.38
2018-12-30T18:56:06.733Z,0.39
2018-12-30T18:58:32.010Z,0.40
2018-12-30T19:01:02.483Z,0.44
2018-12-30T19:03:32.604Z,0.41
2018-12-30T19:06:03.034Z,0.50
2018-12-30T19:08:33.220Z,0.56
2018-12-30T19:11:03.788Z,0.59
2018-12-30T19:13:34.087Z,0.59
2018-12-30T19:16:04.253Z,0.61
2018-12-30T19:18:34.358Z,0.62
2018-12-30T19:21:04.542Z,0.65
2018-12-30T19:23:34.672Z,0.68
2018-12-30T19:26:06.112Z,0.69
2018-12-30T19:28:36.244Z,0.67
2018-12-30T19:31:06.770Z,0.73
2018-12-30T19:33:36.912Z,0.69
2018-12-30T19:36:07.088Z,0.73
2018-12-30T19:38:38.020Z,0.81
2018-12-30T19:41:08.265Z,0.71
2018-12-30T19:43:38.418Z,0.61
2018-12-30T19:46:08.590Z,0.47
2018-12-30T19:48:38.759Z,0.42
2018-12-30T19:51:08.899Z,0.37
2018-12-30T19:53:39.051Z,0.26
2018-12-30T19:56:09.529Z,0.34
2018-12-30T19:58:39.660Z,0.25
2018-12-30T20:01:09.801Z,0.28
2018-12-30T20:03:39.948Z,0.21
2018-12-30T20:06:12.348Z,0.12
2018-12-30T20:08:42.474Z,0.10
2018-12-30T20:11:12.601Z,0.02
2018-12-30T20:13:43.112Z,-0.03
2018-12-30T20:16:13.238Z,-0.09
2018-12-30T20:18:43.361Z,-0.07
2018-12-30T20:21:13.510Z,-0.17
2018-12-30T20:23:43.669Z,-0.15
2018-12-30T20:26:13.864Z,-0.26
2018-12-30T20:28:43.995Z,-0.28
2018-12-30T20:31:14.166Z,-0.30
2018-12-30T20:33:44.682Z,-0.25
2018-12-30T20:36:14.948Z,-0.23
2018-12-30T20:38:45.128Z,-1.74
2018-12-30T20:41:15.265Z,-0.32
2018-12-30T20:43:45.420Z,-0.41
2018-12-30T20:46:15.586Z,-0.30
2018-12-30T20:48:45.733Z,-0.24
2018-12-30T20:51:16.154Z,-0.25
2018-12-30T20:53:46.296Z,-0.31
2018-12-30T20:56:16.434Z,-0.25
2018-12-30T20:58:46.569Z,-0.26
2018-12-30T21:01:17.009Z,-0.28
2018-12-30T21:03:47.184Z,-0.23
2018-12-30T21:06:17.466Z,-0.24
2018-12-30T21:08:47.790Z,-0.22
2018-12-30T21:11:18.200Z,-0.27
2018-12-30T21:13:48.340Z,-0.25
2018-12-30T21:16:18.842Z,-0.21
2018-12-30T21:18:48.962Z,-0.25
2018-12-30T21:21:19.241Z,-0.28
2018-12-30T21:23:49.548Z,-0.22
2018-12-30T21:26:19.936Z,-0.20
2018-12-30T21:28:50.045Z,-0.18
2018-12-30T21:31:20.193Z,-0.17
2018-12-30T21:33:50.347Z,-0.08
2018-12-30T21:36:20.624Z,-0.05
2018-12-30T21:38:50.879Z,-0.01
2018-12-30T21:41:21.119Z,0.01
2018-12-30T21:43:51.449Z,-0.06
2018-12-30T21:46:21.590Z,0.01
2018-12-30T21:48:51.745Z,-0.01
2018-12-30T21:51:21.993Z,0.03
2018-12-30T21:53:52.224Z,0.07
2018-12-30T21:56:22.371Z,-0.12
2018-12-30T21:58:52.574Z,-0.11
2018-12-30T22:01:22.801Z,-0.05
2018-12-30T22:03:52.928Z,0.11
2018-12-30T22:06:23.104Z,0.02
2018-12-30T22:08:53.215Z,0.08
2018-12-30T22:11:23.410Z,0.05
2018-12-30T22:13:53.599Z,0.06
2018-12-30T22:16:24.262Z,0.13
2018-12-30T22:18:54.369Z,0.26
2018-12-30T22:21:24.553Z,0.20
2018-12-30T22:23:54.730Z,0.15
2018-12-30T22:26:25.050Z,-0.11
2018-12-30T22:28:55.172Z,-0.14
2018-12-30T22:31:26.538Z,-0.01
2018-12-30T22:33:57.270Z,0.04
2018-12-30T22:36:27.780Z,-0.09
2018-12-30T22:38:57.984Z,-0.20
2018-12-30T22:41:28.159Z,-0.16
2018-12-30T22:43:58.387Z,-0.36
2018-12-30T22:46:28.607Z,-0.62
2018-12-30T22:48:58.727Z,-0.52
2018-12-30T22:51:28.943Z,-0.45
2018-12-30T22:53:59.550Z,-0.33
2018-12-30T22:56:29.843Z,-0.55
2018-12-30T22:58:59.958Z,-0.54
2018-12-30T23:01:35.192Z,-0.46
2018-12-30T23:04:05.358Z,-0.42
2018-12-30T23:06:35.626Z,-0.41
2018-12-30T23:09:08.613Z,-0.56
2018-12-30T23:11:39.071Z,-0.51
2018-12-30T23:14:09.185Z,-0.42
2018-12-30T23:16:39.318Z,-0.32
2018-12-30T23:19:09.583Z,-0.37
2018-12-30T23:21:39.714Z,-0.28
2018-12-30T23:24:11.001Z,-0.27
2018-12-30T23:26:41.610Z,-0.25
2018-12-30T23:29:11.724Z,-0.26
2018-12-30T23:31:42.299Z,-0.18
2018-12-30T23:34:12.408Z,-0.03
2018-12-30T23:36:42.940Z,-0.03
2018-12-30T23:39:14.155Z,-0.06
2018-12-30T23:41:44.286Z,-0.01
2018-12-30T23:44:14.404Z,0.02
2018-12-30T23:46:44.578Z,-0.02
2018-12-30T23:49:14.701Z,0.12
2018-12-30T23:51:45.383Z,0.18
2018-12-30T23:54:15.485Z,0.17
2018-12-30T23:56:46.128Z,0.26
2018-12-30T23:59:16.237Z,0.35
